createdAt,value
2018-06-27T00:04:00.650Z,99.90
2018-06-27T00:06:28.356Z,99.90
2018-06-27T00:11:23.599Z,99.90
2018-06-27T00:13:56.977Z,99.90
2018-06-27T00:16:24.612Z,99.90
2018-06-27T00:18:52.197Z,99.90
2018-06-27T00:21:20.194Z,99.90
2018-06-27T00:23:47.745Z,99.90
2018-06-27T00:26:15.479Z,99.90
2018-06-27T00:28:43.052Z,99.90
2018-06-27T00:31:10.624Z,99.90
2018-06-27T00:33:38.285Z,99.90
2018-06-27T00:36:06.060Z,99.90
2018-06-27T00:43:28.863Z,99.90
2018-06-27T00:45:56.486Z,99.90
2018-06-27T00:48:24.203Z,99.90
2018-06-27T00:50:51.845Z,99.90
2018-06-27T00:53:22.284Z,99.90
2018-06-27T00:55:49.900Z,99.90
2018-06-27T00:58:17.457Z,99.90
2018-06-27T01:00:45.152Z,99.90
2018-06-27T01:03:12.746Z,99.90
2018-06-27T01:05:40.369Z,99.90
2018-06-27T01:08:08.407Z,99.90
2018-06-27T01:10:36.301Z,99.90
2018-06-27T01:13:04.279Z,99.90
2018-06-27T01:15:31.870Z,99.90
2018-06-27T01:17:59.510Z,99.90
2018-06-27T01:20:27.077Z,99.90
2018-06-27T01:22:54.890Z,99.90
2018-06-27T01:25:22.649Z,99.90
2018-06-27T01:27:50.352Z,99.90
2018-06-27T01:30:19.209Z,99.90
2018-06-27T01:32:47.069Z,99.90
2018-06-27T01:35:14.729Z,99.90
2018-06-27T01:37:42.452Z,99.90
2018-06-27T01:40:10.082Z,99.90
2018-06-27T01:47:32.886Z,99.90
2018-06-27T01:50:00.487Z,99.90
2018-06-27T01:52:28.064Z,99.90
2018-06-27T01:54:55.674Z,99.90
2018-06-27T01:57:23.226Z,99.90
2018-06-27T02:02:18.348Z,99.90
2018-06-27T02:04:45.916Z,99.90
2018-06-27T02:07:13.585Z,99.90
2018-06-27T02:09:41.145Z,99.90
2018-06-27T02:12:15.609Z,99.90
2018-06-27T02:14:43.203Z,99.90
2018-06-27T02:17:10.785Z,99.90
2018-06-27T02:19:38.326Z,99.90
2018-06-27T02:22:06.037Z,99.90
2018-06-27T02:24:33.597Z,99.90
2018-06-27T02:27:01.763Z,99.90
2018-06-27T02:31:56.962Z,99.90
2018-06-27T02:34:24.538Z,99.90
2018-06-27T02:36:52.123Z,99.90
2018-06-27T02:39:19.733Z,99.90
2018-06-27T02:41:47.334Z,99.90
2018-06-27T02:44:14.926Z,99.90
2018-06-27T02:46:42.549Z,99.90
2018-06-27T02:49:10.211Z,99.90
2018-06-27T02:51:37.777Z,99.90
2018-06-27T02:54:05.390Z,99.90
2018-06-27T02:56:33.030Z,99.90
2018-06-27T02:59:00.617Z,99.90
2018-06-27T03:01:28.350Z,99.90
2018-06-27T03:06:23.635Z,99.90
2018-06-27T03:08:51.297Z,99.90
2018-06-27T03:11:18.908Z,99.90
2018-06-27T03:13:46.457Z,99.90
2018-06-27T03:16:14.161Z,99.90
2018-06-27T03:18:47.689Z,99.90
2018-06-27T03:21:15.307Z,99.90
2018-06-27T03:23:42.854Z,99.90
2018-06-27T03:26:10.560Z,99.90
2018-06-27T03:28:38.164Z,99.90
2018-06-27T03:31:05.985Z,99.90
2018-06-27T03:33:33.591Z,99.90
2018-06-27T03:38:28.753Z,99.90
2018-06-27T03:40:56.412Z,99.90
2018-06-27T03:43:24.029Z,99.90
2018-06-27T03:45:51.635Z,99.90
2018-06-27T03:50:46.902Z,99.90
2018-06-27T03:53:14.535Z,99.90
2018-06-27T03:55:42.191Z,99.90
2018-06-27T03:58:11.140Z,99.90
2018-06-27T04:00:39.360Z,99.90
2018-06-27T04:03:07.428Z,99.90
2018-06-27T04:05:35.013Z,99.90
2018-06-27T04:10:30.160Z,99.90
2018-06-27T04:12:57.976Z,99.90
2018-06-27T04:17:53.577Z,99.90
2018-06-27T04:20:21.251Z,99.90
2018-06-27T04:22:49.742Z,99.90
2018-06-27T04:25:17.393Z,99.90
2018-06-27T04:27:45.097Z,99.90
2018-06-27T04:30:12.905Z,99.90
2018-06-27T04:32:40.837Z,99.90
2018-06-27T04:37:36.014Z,99.90
2018-06-27T04:40:03.686Z,99.90
2018-06-27T04:42:31.393Z,99.90
2018-06-27T04:44:59.062Z,99.90
2018-06-27T04:47:26.861Z,99.90
2018-06-27T04:49:54.530Z,99.90
2018-06-27T04:52:23.424Z,99.90
2018-06-27T04:54:51.725Z,99.90
2018-06-27T04:59:47.428Z,99.90
2018-06-27T05:02:15.497Z,99.90
2018-06-27T05:07:11.495Z,99.90
2018-06-27T05:09:39.509Z,99.90
2018-06-27T05:12:07.478Z,99.90
2018-06-27T05:14:35.547Z,99.90
2018-06-27T05:17:03.409Z,99.90
2018-06-27T05:19:31.170Z,99.90
2018-06-27T05:21:59.059Z,99.90
2018-06-27T05:24:26.614Z,99.90
2018-06-27T05:26:54.136Z,99.90
2018-06-27T05:29:21.748Z,99.90
2018-06-27T05:34:16.883Z,99.90
2018-06-27T05:36:44.454Z,99.90
2018-06-27T05:39:12.266Z,99.90
2018-06-27T05:41:39.846Z,99.90
2018-06-27T05:46:35.493Z,99.90
2018-06-27T05:49:03.102Z,99.90
2018-06-27T05:51:30.737Z,99.90
2018-06-27T05:53:58.440Z,99.90
2018-06-27T05:56:26.049Z,99.90
2018-06-27T05:58:53.606Z,99.90
2018-06-27T06:03:48.751Z,99.90
2018-06-27T06:06:16.645Z,99.90
2018-06-27T06:08:44.252Z,99.90
2018-06-27T06:13:39.389Z,99.90
2018-06-27T06:16:06.973Z,99.90
2018-06-27T06:18:34.564Z,99.90
2018-06-27T06:23:29.704Z,99.90
2018-06-27T06:25:57.349Z,99.90
2018-06-27T06:30:52.485Z,99.90
2018-06-27T06:33:20.082Z,99.90
2018-06-27T06:35:47.657Z,99.90
2018-06-27T06:38:15.245Z,99.90
2018-06-27T06:43:10.421Z,99.90
2018-06-27T06:45:38.008Z,99.90
2018-06-27T06:48:05.572Z,99.90
2018-06-27T06:50:33.221Z,99.90
2018-06-27T06:53:00.801Z,99.90
2018-06-27T06:55:29.528Z,99.90
2018-06-27T06:57:57.156Z,99.90
2018-06-27T07:00:26.981Z,99.90
2018-06-27T07:02:54.815Z,99.90
2018-06-27T07:05:22.421Z,99.90
2018-06-27T07:07:49.974Z,99.90
2018-06-27T07:10:17.624Z,99.90
2018-06-27T07:12:45.241Z,99.90
2018-06-27T07:15:12.805Z,99.90
2018-06-27T07:17:40.458Z,99.90
2018-06-27T07:20:08.102Z,99.90
2018-06-27T07:22:35.782Z,99.90
2018-06-27T07:25:03.548Z,99.90
2018-06-27T07:27:31.196Z,99.90
2018-06-27T07:29:58.805Z,99.90
2018-06-27T07:34:54.039Z,99.90
2018-06-27T07:37:21.629Z,99.90
2018-06-27T07:39:49.260Z,99.90
2018-06-27T07:42:16.869Z,99.90
2018-06-27T07:44:44.413Z,99.90
2018-06-27T07:47:12.232Z,99.90
2018-06-27T07:49:39.857Z,99.90
2018-06-27T07:52:07.546Z,99.90
2018-06-27T07:54:38.862Z,99.90
2018-06-27T07:57:07.289Z,99.90
2018-06-27T07:59:34.946Z,99.90
2018-06-27T08:04:30.126Z,99.90
2018-06-27T08:06:57.798Z,99.90
2018-06-27T08:09:25.338Z,99.90
2018-06-27T08:11:52.918Z,99.90
2018-06-27T08:14:20.605Z,99.90
2018-06-27T08:16:48.150Z,99.90
2018-06-27T08:19:15.758Z,99.90
2018-06-27T08:21:43.318Z,99.90
2018-06-27T08:24:10.903Z,99.90
2018-06-27T08:26:38.513Z,99.90
2018-06-27T08:29:06.086Z,99.90
2018-06-27T08:31:33.648Z,99.90
2018-06-27T08:34:01.345Z,99.90
2018-06-27T08:36:28.973Z,99.90
2018-06-27T08:38:56.665Z,99.90
2018-06-27T08:41:24.224Z,99.90
2018-06-27T08:43:51.772Z,99.90
2018-06-27T08:46:19.394Z,99.90
2018-06-27T08:48:47.200Z,99.90
2018-06-27T08:51:14.734Z,99.90
2018-06-27T08:53:42.480Z,99.90
2018-06-27T08:56:10.037Z,99.90
2018-06-27T09:03:32.770Z,99.90
2018-06-27T09:06:00.428Z,99.90
2018-06-27T09:08:27.990Z,99.90
2018-06-27T09:10:55.589Z,99.90
2018-06-27T09:13:23.484Z,99.90
2018-06-27T09:15:51.070Z,99.90
2018-06-27T09:18:18.731Z,99.90
2018-06-27T09:20:46.556Z,99.90
2018-06-27T09:23:14.137Z,99.90
2018-06-27T09:25:41.738Z,99.90
2018-06-27T09:28:09.294Z,99.90
2018-06-27T09:30:37.678Z,99.90
2018-06-27T09:38:00.390Z,99.90
2018-06-27T09:40:27.926Z,99.90
2018-06-27T09:50:18.368Z,99.90
2018-06-27T09:52:45.985Z,99.90
2018-06-27T09:55:13.553Z,99.90
2018-06-27T09:57:41.104Z,99.90
2018-06-27T10:00:15.292Z,99.90
2018-06-27T10:05:10.561Z,99.90
2018-06-27T10:07:38.157Z,99.90
2018-06-27T10:10:05.772Z,99.90
2018-06-27T10:12:33.340Z,99.90
2018-06-27T10:15:00.890Z,99.90
2018-06-27T10:17:28.470Z,99.90
2018-06-27T10:22:23.614Z,99.90
2018-06-27T10:27:18.736Z,99.90
2018-06-27T10:29:46.340Z,99.90
2018-06-27T10:32:13.929Z,99.90
2018-06-27T10:37:09.111Z,99.90
2018-06-27T10:39:36.693Z,99.90
2018-06-27T10:42:04.267Z,99.90
2018-06-27T10:44:31.946Z,99.90
2018-06-27T10:46:59.506Z,99.90
2018-06-27T10:49:27.066Z,99.90
2018-06-27T10:51:54.924Z,99.90
2018-06-27T10:54:22.458Z,99.90
2018-06-27T10:56:49.996Z,99.90
2018-06-27T10:59:17.823Z,99.90
2018-06-27T11:01:47.193Z,99.90
2018-06-27T11:04:14.744Z,99.90
2018-06-27T11:06:42.283Z,99.90
2018-06-27T11:09:10.103Z,99.90
2018-06-27T11:11:37.817Z,99.90
2018-06-27T11:14:05.568Z,99.90
2018-06-27T11:16:33.207Z,99.90
2018-06-27T11:19:00.839Z,99.90
2018-06-27T11:21:28.472Z,99.90
2018-06-27T11:23:56.090Z,99.90
2018-06-27T11:26:23.653Z,99.90
2018-06-27T11:28:51.340Z,99.90
2018-06-27T11:31:18.929Z,99.90
2018-06-27T11:36:14.122Z,99.90
2018-06-27T11:38:41.683Z,99.90
2018-06-27T11:41:09.250Z,99.90
2018-06-27T11:46:05.081Z,99.90
2018-06-27T11:51:00.269Z,99.90
2018-06-27T11:53:27.938Z,99.90
2018-06-27T11:55:55.616Z,99.90
2018-06-27T11:58:23.226Z,99.90
2018-06-27T12:05:45.939Z,99.90
2018-06-27T12:08:13.657Z,99.90
2018-06-27T12:10:41.205Z,99.90
2018-06-27T12:13:08.808Z,99.90
2018-06-27T12:15:36.395Z,99.90
2018-06-27T12:18:04.028Z,99.90
2018-06-27T12:20:31.585Z,99.90
2018-06-27T12:22:59.276Z,99.90
2018-06-27T12:25:26.822Z,99.90
2018-06-27T12:27:54.422Z,99.90
2018-06-27T12:30:23.168Z,99.90
2018-06-27T12:32:51.197Z,99.90
2018-06-27T12:35:19.753Z,99.90
2018-06-27T12:37:47.337Z,99.90
2018-06-27T12:42:42.474Z,99.90
2018-06-27T12:45:10.519Z,99.90
2018-06-27T12:50:06.923Z,99.90
2018-06-27T12:52:34.471Z,99.90
2018-06-27T12:55:03.949Z,99.90
2018-06-27T12:57:32.685Z,99.90
2018-06-27T13:00:00.330Z,99.90
2018-06-27T13:02:27.968Z,99.90
2018-06-27T13:04:55.599Z,99.90
2018-06-27T13:07:23.126Z,99.90
2018-06-27T13:09:50.731Z,99.90
2018-06-27T13:12:18.353Z,99.90
2018-06-27T13:14:45.883Z,99.90
2018-06-27T13:17:13.514Z,99.90
2018-06-27T13:19:41.118Z,99.90
2018-06-27T13:22:08.746Z,99.90
2018-06-27T13:24:36.643Z,99.90
2018-06-27T13:27:04.637Z,99.90
2018-06-27T13:29:32.237Z,99.90
2018-06-27T13:31:59.794Z,99.90
2018-06-27T13:34:27.410Z,99.90
2018-06-27T13:36:54.962Z,99.90
2018-06-27T13:39:22.653Z,99.90
2018-06-27T13:44:17.811Z,99.90
2018-06-27T13:46:45.432Z,99.90
2018-06-27T13:49:13.059Z,99.90
2018-06-27T13:51:40.733Z,99.90
2018-06-27T13:54:08.322Z,99.90
2018-06-27T13:56:35.891Z,99.80
2018-06-27T13:59:04.111Z,99.90
2018-06-27T14:01:31.716Z,99.90
2018-06-27T14:06:26.825Z,99.50
2018-06-27T14:08:54.391Z,98.20
2018-06-27T14:11:22.196Z,99.50
2018-06-27T14:13:49.806Z,99.40
2018-06-27T14:16:17.465Z,98.40
2018-06-27T14:23:40.169Z,98.40
2018-06-27T14:26:07.873Z,98.50
2018-06-27T14:28:35.429Z,98.00
2018-06-27T14:31:03.046Z,98.60
2018-06-27T14:33:30.663Z,99.00
2018-06-27T14:35:58.388Z,98.90
2018-06-27T14:38:25.989Z,96.70
2018-06-27T14:40:53.715Z,95.90
2018-06-27T14:43:21.303Z,96.30
2018-06-27T14:45:48.957Z,96.40
2018-06-27T14:48:16.513Z,96.00
2018-06-27T14:50:44.077Z,93.90
2018-06-27T14:53:11.669Z,93.70
2018-06-27T14:58:07.246Z,93.50
2018-06-27T15:00:34.843Z,92.70
2018-06-27T15:03:02.487Z,93.00
2018-06-27T15:05:30.075Z,92.30
2018-06-27T15:10:25.530Z,91.70
2018-06-27T15:12:53.122Z,92.60
2018-06-27T15:15:20.705Z,93.50
2018-06-27T15:17:48.311Z,93.20
2018-06-27T15:20:15.895Z,92.40
2018-06-27T15:22:43.428Z,93.30
2018-06-27T15:25:11.032Z,93.70
2018-06-27T15:27:38.598Z,94.30
2018-06-27T15:30:06.284Z,94.90
2018-06-27T15:32:33.988Z,95.00
2018-06-27T15:35:01.591Z,93.50
2018-06-27T15:39:56.725Z,87.90
2018-06-27T15:44:51.878Z,83.90
2018-06-27T15:47:19.472Z,78.00
2018-06-27T15:49:47.051Z,75.50
2018-06-27T15:54:42.351Z,69.60
2018-06-27T15:57:09.957Z,67.20
2018-06-27T15:59:40.373Z,66.60
2018-06-27T16:02:08.099Z,64.60
2018-06-27T16:04:35.738Z,63.60
2018-06-27T16:07:03.321Z,61.00
2018-06-27T16:09:30.890Z,61.00
2018-06-27T16:11:58.539Z,60.00
2018-06-27T16:14:26.193Z,59.90
2018-06-27T16:16:53.858Z,58.60
2018-06-27T16:21:48.943Z,59.30
2018-06-27T16:24:16.642Z,57.80
2018-06-27T16:26:44.222Z,57.40
2018-06-27T16:29:11.863Z,56.20
2018-06-27T16:31:39.484Z,58.70
2018-06-27T16:34:07.090Z,57.50
2018-06-27T16:36:34.828Z,57.50
2018-06-27T16:39:02.482Z,57.20
2018-06-27T16:41:30.036Z,57.10
2018-06-27T16:43:57.702Z,57.10
2018-06-27T16:46:25.366Z,55.10
2018-06-27T16:48:52.944Z,56.90
2018-06-27T16:51:20.675Z,55.00
2018-06-27T16:53:48.288Z,55.20
2018-06-27T16:56:19.354Z,56.20
2018-06-27T16:58:47.101Z,55.70
2018-06-27T17:01:14.713Z,55.70
2018-06-27T17:03:42.494Z,56.10
2018-06-27T17:06:10.034Z,57.70
2018-06-27T17:08:37.646Z,57.10
2018-06-27T17:11:05.232Z,57.40
2018-06-27T17:13:32.811Z,57.60
2018-06-27T17:16:00.430Z,56.80
2018-06-27T17:18:28.907Z,56.60
2018-06-27T17:20:56.475Z,57.30
2018-06-27T17:23:24.176Z,57.20
2018-06-27T17:25:51.789Z,58.20
2018-06-27T17:28:19.414Z,57.60
2018-06-27T17:33:14.634Z,58.50
2018-06-27T17:35:42.265Z,58.50
2018-06-27T17:38:09.909Z,59.00
2018-06-27T17:40:37.489Z,60.10
2018-06-27T17:43:05.110Z,61.50
2018-06-27T17:48:00.396Z,62.70
2018-06-27T17:50:27.982Z,61.60
2018-06-27T17:52:56.543Z,63.10
2018-06-27T17:55:24.309Z,61.80
2018-06-27T17:57:51.976Z,61.90
2018-06-27T18:00:19.729Z,60.20
2018-06-27T18:02:47.513Z,62.60
2018-06-27T18:05:15.243Z,61.70
2018-06-27T18:07:42.850Z,61.60
2018-06-27T18:10:10.511Z,64.00
2018-06-27T18:12:38.072Z,64.40
2018-06-27T18:15:06.109Z,64.10
2018-06-27T18:17:33.765Z,67.30
2018-06-27T18:20:01.378Z,68.10
2018-06-27T18:22:29.082Z,69.10
2018-06-27T18:24:56.893Z,68.70
2018-06-27T18:29:52.065Z,66.90
2018-06-27T18:32:19.674Z,66.20
2018-06-27T18:34:47.278Z,68.00
2018-06-27T18:37:14.883Z,67.00
2018-06-27T18:42:10.017Z,68.80
2018-06-27T18:44:37.553Z,70.00
2018-06-27T18:47:05.347Z,69.10
2018-06-27T18:49:33.053Z,70.40
2018-06-27T18:52:00.713Z,70.10
2018-06-27T18:54:28.340Z,70.40
2018-06-27T18:56:55.899Z,70.60
2018-06-27T18:59:23.496Z,71.80
2018-06-27T19:01:51.059Z,72.90
2018-06-27T19:04:18.686Z,71.20
2018-06-27T19:06:46.226Z,69.60
2018-06-27T19:09:13.934Z,71.60
2018-06-27T19:11:41.910Z,73.30
2018-06-27T19:14:09.497Z,74.30
2018-06-27T19:19:04.760Z,74.00
2018-06-27T19:21:32.326Z,74.10
2018-06-27T19:23:59.893Z,74.60
2018-06-27T19:26:27.564Z,74.40
2018-06-27T19:28:55.150Z,75.90
2018-06-27T19:31:23.111Z,75.50
2018-06-27T19:36:18.480Z,76.30
2018-06-27T19:38:46.092Z,77.40
2018-06-27T19:41:13.646Z,77.90
2018-06-27T19:43:41.295Z,78.30
2018-06-27T19:46:08.838Z,78.90
2018-06-27T19:48:36.429Z,79.00
2018-06-27T19:51:04.025Z,79.10
2018-06-27T19:53:31.787Z,80.10
2018-06-27T19:55:59.499Z,82.30
2018-06-27T19:58:27.065Z,81.90
2018-06-27T20:00:54.645Z,83.60
2018-06-27T20:03:22.194Z,84.00
2018-06-27T20:05:49.838Z,82.50
2018-06-27T20:08:17.483Z,82.20
2018-06-27T20:10:45.075Z,81.70
2018-06-27T20:15:40.483Z,82.80
2018-06-27T20:20:35.777Z,82.90
2018-06-27T20:23:03.366Z,83.20
2018-06-27T20:25:30.934Z,84.20
2018-06-27T20:27:58.585Z,84.90
2018-06-27T20:30:26.169Z,85.00
2018-06-27T20:32:53.725Z,84.10
2018-06-27T20:35:21.373Z,84.10
2018-06-27T20:40:16.835Z,84.20
2018-06-27T20:42:44.385Z,85.30
2018-06-27T20:47:39.560Z,84.20
2018-06-27T20:50:07.354Z,85.20
2018-06-27T20:52:35.201Z,85.40
2018-06-27T20:55:02.794Z,84.90
2018-06-27T20:59:57.974Z,84.80
2018-06-27T21:04:53.372Z,86.10
2018-06-27T21:07:20.944Z,85.60
2018-06-27T21:09:48.673Z,86.30
2018-06-27T21:12:16.587Z,87.00
2018-06-27T21:14:44.185Z,86.70
2018-06-27T21:17:11.778Z,87.90
2018-06-27T21:19:39.341Z,87.30
2018-06-27T21:22:06.939Z,87.80
2018-06-27T21:24:34.518Z,88.40
2018-06-27T21:27:02.054Z,88.80
2018-06-27T21:29:29.668Z,88.00
2018-06-27T21:31:57.210Z,88.80
2018-06-27T21:34:24.769Z,88.20
2018-06-27T21:39:19.923Z,90.00
2018-06-27T21:41:47.529Z,89.70
2018-06-27T21:44:15.067Z,90.00
2018-06-27T21:46:42.727Z,90.30
2018-06-27T21:49:10.306Z,90.80
2018-06-27T21:51:37.905Z,91.50
2018-06-27T21:54:05.525Z,91.20
2018-06-27T21:56:33.082Z,91.40
2018-06-27T22:01:28.346Z,92.40
2018-06-27T22:03:56.030Z,92.80
2018-06-27T22:06:23.596Z,93.10
2018-06-27T22:08:51.113Z,92.90
2018-06-27T22:11:18.828Z,93.40
2018-06-27T22:13:46.406Z,94.20
2018-06-27T22:16:14.017Z,94.70
2018-06-27T22:18:41.585Z,94.70
2018-06-27T22:21:09.187Z,95.00
2018-06-27T22:23:36.738Z,95.60
2018-06-27T22:26:04.313Z,95.70
2018-06-27T22:28:31.847Z,95.70
2018-06-27T22:30:59.405Z,96.30
2018-06-27T22:33:26.969Z,96.90
2018-06-27T22:40:49.982Z,99.00
2018-06-27T22:43:17.522Z,99.70
2018-06-27T22:45:45.115Z,99.90
2018-06-27T22:48:12.661Z,99.90
2018-06-27T22:50:40.312Z,99.90
2018-06-27T22:53:07.974Z,99.90
2018-06-27T22:58:03.310Z,99.90
2018-06-27T23:02:58.427Z,99.90
2018-06-27T23:07:53.585Z,99.90
2018-06-27T23:10:21.165Z,99.90
2018-06-27T23:12:48.865Z,99.90
2018-06-27T23:17:44.132Z,99.90
2018-06-27T23:20:11.928Z,99.90
2018-06-27T23:22:43.259Z,99.90
2018-06-27T23:25:11.049Z,99.90
2018-06-27T23:27:38.821Z,99.90
2018-06-27T23:32:34.762Z,99.90
2018-06-27T23:37:29.982Z,99.90
2018-06-27T23:42:25.095Z,99.90
2018-06-27T23:47:20.172Z,99.90
2018-06-27T23:49:47.967Z,99.90
2018-06-27T23:59:38.812Z,99.90
